Rock Hill, SC (29730)

2:52 PM EDT on September 03, 2015 (GMT -0400)
Winthrop University | | Change Station
CLOSE
Current Station
Personal Weather Station
Location: Rock Hill, SC
Elevation: 665 ft
Nearby Weather Stations

Elev 665 ft 34.94 °N, 81.03 °W | Updated 0 second ago

Clear
Clear
92.3 °F
Feels Like 92 °F
N
0.0
Wind Variable Wind from NE
Gusts 0.0 mph

Today
High -- | Low -- °F
--% Chance of Precip.
Yesterday
High -- | Low -- °F
Precip. -- in
6:58 AM 7:48 PM
Waning Gibbous, 68% visible
Pressure 29.92 in
Visibility 10.0 miles
Clouds Few 5000 ft
Heat Index 92 °F
Dew Point 61 °F
Humidity 35%
Rainfall 0.00 in
Snow Depth Not available.
UV 9 out of 12
Pollen 9.30 out of 12
Air Quality Not available.
Flu Activity Not available.
METAR KUZA 031754Z AUTO 34006KT 10SM FEW050 34/18 A2997 RMK AO2 SLP132 T03390178 10339 20233 58014
Pressure 29.92 in
Visibility 10.0 miles
Clouds Few 5000 ft
Heat Index 92 °F
Dew Point 61 °F
Humidity 35%
Rainfall 0.00 in
Snow Depth Not available.
UV 9 out of 12
Pollen 9.30 out of 12
Air Quality Not available.
Flu Activity Not available.
METAR KUZA 031754Z AUTO 34006KT 10SM FEW050 34/18 A2997 RMK AO2 SLP132 T03390178 10339 20233 58014

10-Day Weather Forecast

×

Almanac

Astronomy

Sep. 03, 2015 Rise Set
Actual Time
Civil Twilight
Nautical Twilight
Astronomical Twilight
Moon
Length of Visible Light
Length of Day
Tomorrow will be .
, % of the Moon is Illuminated

Today's Extremes

State Highs State Lows

Community

WunderPhotos

Upload Photos

1,852,001 photos uploaded!

WunderBlogs® & News

Nearby

Air Quality

  Air Quality AQ Index Pollutant
Not available.

Snow Depth

Station Depth Elevation

Earthquake Activity

City Distance Mag. Time & Date
Minimum magnitude displayed is 2.5.

Coastal Water Temperatures

Place Temperature

Stations

Nearby Weather Stations

Station Location Temp. Windchill Dew Point Humidity Wind Precip. Elev Updated Type